createdAt,value
2018-02-11T00:00:02.802Z,3.34
2018-02-11T00:01:02.819Z,3.27
2018-02-11T00:02:02.837Z,3.21
2018-02-11T00:03:02.849Z,3.29
2018-02-11T00:04:02.869Z,3.27
2018-02-11T00:05:02.882Z,3.26
2018-02-11T00:06:02.903Z,3.21
2018-02-11T00:07:02.922Z,3.21
2018-02-11T00:08:02.932Z,3.30
2018-02-11T00:09:02.954Z,3.24
2018-02-11T00:10:02.964Z,3.27
2018-02-11T00:11:03.026Z,3.27
2018-02-11T00:12:02.997Z,3.39
2018-02-11T00:13:03.021Z,3.24
2018-02-11T00:14:03.033Z,3.37
2018-02-11T00:15:03.049Z,3.29
2018-02-11T00:16:03.071Z,3.23
2018-02-11T00:17:03.090Z,3.34
2018-02-11T00:18:03.100Z,3.27
2018-02-11T00:19:03.116Z,3.23
2018-02-11T00:20:03.137Z,3.37
2018-02-11T00:21:03.156Z,3.34
2018-02-11T00:22:03.167Z,3.24
2018-02-11T00:23:03.184Z,3.40
2018-02-11T00:24:03.205Z,3.29
2018-02-11T00:25:03.217Z,3.30
2018-02-11T00:26:03.239Z,3.27
2018-02-11T00:27:03.251Z,3.37
2018-02-11T00:28:03.273Z,3.37
2018-02-11T00:29:03.283Z,3.34
2018-02-11T00:30:03.307Z,3.24
2018-02-11T00:31:03.317Z,3.35
2018-02-11T00:32:03.339Z,3.35
2018-02-11T00:33:03.357Z,3.23
2018-02-11T00:34:03.368Z,3.27
2018-02-11T00:35:03.387Z,3.21
2018-02-11T00:36:03.407Z,3.34
2018-02-11T00:37:03.424Z,3.24
2018-02-11T00:38:03.435Z,3.26
2018-02-11T00:39:03.460Z,3.32
2018-02-11T00:40:03.469Z,3.30
2018-02-11T00:41:03.485Z,3.29
2018-02-11T00:42:03.508Z,3.27
2018-02-11T00:43:03.523Z,3.24
2018-02-11T00:44:03.582Z,3.34
2018-02-11T00:45:03.552Z,3.23
2018-02-11T00:46:03.575Z,3.23
2018-02-11T00:47:03.592Z,3.34
2018-02-11T00:48:03.603Z,3.29
2018-02-11T00:49:03.625Z,3.24
2018-02-11T00:50:03.636Z,3.32
2018-02-11T00:51:03.659Z,3.35
2018-02-11T00:52:03.669Z,3.32
2018-02-11T00:53:03.692Z,3.26
2018-02-11T00:54:03.703Z,3.32
2018-02-11T00:55:03.720Z,3.39
2018-02-11T00:56:03.743Z,3.32
2018-02-11T00:57:03.759Z,3.29
2018-02-11T00:58:03.771Z,3.34
2018-02-11T00:59:03.788Z,3.34
2018-02-11T01:00:03.810Z,3.40
2018-02-11T01:01:03.826Z,3.35
2018-02-11T01:02:03.838Z,3.39
2018-02-11T01:03:03.861Z,3.39
2018-02-11T01:04:03.871Z,3.32
2018-02-11T01:05:03.893Z,3.35
2018-02-11T01:06:03.905Z,3.34
2018-02-11T01:07:03.927Z,3.42
2018-02-11T01:08:03.938Z,3.39
2018-02-11T01:09:03.961Z,3.29
2018-02-11T01:10:03.978Z,3.35
2018-02-11T01:11:03.990Z,3.45
2018-02-11T01:12:04.010Z,3.39
2018-02-11T01:13:04.027Z,3.39
2018-02-11T01:14:04.046Z,3.32
2018-02-11T01:15:04.062Z,3.37
2018-02-11T01:16:04.078Z,3.42
2018-02-11T01:17:04.089Z,3.42
2018-02-11T01:18:04.114Z,3.46
2018-02-11T01:19:04.124Z,3.43
2018-02-11T01:20:04.145Z,3.24
2018-02-11T01:21:04.162Z,3.30
2018-02-11T01:22:04.173Z,3.32
2018-02-11T01:23:04.190Z,3.26
2018-02-11T01:24:04.213Z,3.26
2018-02-11T01:25:04.233Z,3.24
2018-02-11T01:26:04.241Z,3.26
2018-02-11T01:27:04.263Z,3.39
2018-02-11T01:28:04.279Z,3.29
2018-02-11T01:29:04.296Z,3.21
2018-02-11T01:30:04.308Z,3.24
2018-02-11T01:31:04.330Z,3.23
2018-02-11T01:32:04.341Z,3.32
2018-02-11T01:33:04.363Z,3.29
2018-02-11T01:34:04.374Z,3.20
2018-02-11T01:35:04.392Z,3.11
2018-02-11T01:36:04.414Z,3.05
2018-02-11T01:37:04.431Z,3.14
2018-02-11T01:38:04.442Z,3.03
2018-02-11T01:39:04.460Z,2.98
2018-02-11T01:40:04.480Z,3.11
2018-02-11T01:41:04.498Z,3.08
2018-02-11T01:42:04.509Z,2.99
2018-02-11T01:43:04.531Z,3.11
2018-02-11T01:44:04.548Z,3.03
2018-02-11T01:45:04.559Z,3.11
2018-02-11T01:46:04.581Z,3.02
2018-02-11T01:47:04.598Z,3.01
2018-02-11T01:48:04.609Z,3.06
2018-02-11T01:49:04.625Z,3.01
2018-02-11T01:50:04.643Z,3.02
2018-02-11T01:51:04.665Z,2.98
2018-02-11T01:52:04.675Z,2.96
2018-02-11T01:53:04.699Z,2.98
2018-02-11T01:54:04.708Z,2.95
2018-02-11T01:55:04.731Z,2.95
2018-02-11T01:56:04.743Z,2.87
2018-02-11T01:57:04.764Z,2.90
2018-02-11T01:58:04.776Z,2.81
2018-02-11T01:59:04.792Z,2.88
2018-02-11T02:00:04.809Z,2.93
2018-02-11T02:01:04.826Z,2.73
2018-02-11T02:02:04.849Z,2.73
2018-02-11T02:03:04.860Z,2.84
2018-02-11T02:04:04.882Z,2.80
2018-02-11T02:05:04.892Z,2.76
2018-02-11T02:06:04.909Z,2.72
2018-02-11T02:07:04.924Z,2.73
2018-02-11T02:08:04.946Z,2.65
2018-02-11T02:09:04.959Z,2.70
2018-02-11T02:10:04.981Z,2.70
2018-02-11T02:11:04.992Z,2.73
2018-02-11T02:12:05.014Z,2.67
2018-02-11T02:13:05.029Z,2.65
2018-02-11T02:14:05.052Z,2.62
2018-02-11T02:15:05.064Z,2.60
2018-02-11T02:16:05.075Z,2.60
2018-02-11T02:17:05.097Z,2.58
2018-02-11T02:18:05.108Z,2.55
2018-02-11T02:19:05.130Z,2.59
2018-02-11T02:20:05.140Z,2.52
2018-02-11T02:21:05.163Z,2.52
2018-02-11T02:22:05.174Z,2.42
2018-02-11T02:23:05.196Z,2.51
2018-02-11T02:24:05.206Z,2.48
2018-02-11T02:25:05.229Z,2.47
2018-02-11T02:26:05.239Z,2.47
2018-02-11T02:27:05.261Z,2.40
2018-02-11T02:28:05.270Z,2.51
2018-02-11T02:29:05.294Z,2.45
2018-02-11T02:30:05.306Z,2.47
2018-02-11T02:31:05.321Z,2.41
2018-02-11T02:32:05.343Z,2.45
2018-02-11T02:33:05.359Z,2.38
2018-02-11T02:34:05.370Z,2.45
2018-02-11T02:35:05.387Z,2.41
2018-02-11T02:36:05.407Z,2.34
2018-02-11T02:37:05.424Z,2.34
2018-02-11T02:38:05.436Z,2.38
2018-02-11T02:39:05.457Z,2.49
2018-02-11T02:40:05.466Z,2.44
2018-02-11T02:41:05.484Z,2.41
2018-02-11T02:42:05.506Z,2.36
2018-02-11T02:43:05.522Z,2.36
2018-02-11T02:44:05.534Z,2.42
2018-02-11T02:45:05.549Z,2.31
2018-02-11T02:46:05.572Z,2.33
2018-02-11T02:47:05.581Z,2.34
2018-02-11T02:48:05.603Z,2.36
2018-02-11T02:49:05.619Z,2.41
2018-02-11T02:50:05.630Z,2.34
2018-02-11T02:51:05.646Z,2.33
2018-02-11T02:52:05.667Z,2.36
2018-02-11T02:53:05.683Z,2.41
2018-02-11T02:54:05.698Z,2.42
2018-02-11T02:55:05.711Z,2.38
2018-02-11T02:56:05.733Z,2.51
2018-02-11T02:57:05.749Z,2.45
2018-02-11T02:58:05.760Z,2.47
2018-02-11T02:59:05.777Z,2.41
2018-02-11T03:00:05.797Z,2.45
2018-02-11T03:01:05.813Z,2.44
2018-02-11T03:02:05.824Z,2.44
2018-02-11T03:03:05.841Z,2.54
2018-02-11T03:04:05.862Z,2.48
2018-02-11T03:05:05.872Z,2.52
2018-02-11T03:06:05.894Z,2.62
2018-02-11T03:07:05.905Z,2.62
2018-02-11T03:08:05.927Z,2.49
2018-02-11T03:09:05.938Z,2.54
2018-02-11T03:10:05.960Z,2.52
2018-02-11T03:11:05.976Z,2.52
2018-02-11T03:12:05.986Z,2.52
2018-02-11T03:13:06.007Z,2.60
2018-02-11T03:14:06.024Z,2.63
2018-02-11T03:15:06.040Z,2.60
2018-02-11T03:16:06.051Z,2.65
2018-02-11T03:17:06.074Z,2.67
2018-02-11T03:18:06.085Z,2.63
2018-02-11T03:19:06.105Z,2.65
2018-02-11T03:20:06.119Z,2.76
2018-02-11T03:21:06.138Z,2.69
2018-02-11T03:22:06.149Z,2.77
2018-02-11T03:23:06.169Z,2.52
2018-02-11T03:24:06.180Z,2.67
2018-02-11T03:25:06.202Z,2.67
2018-02-11T03:26:06.213Z,2.66
2018-02-11T03:27:06.232Z,2.65
2018-02-11T03:28:06.251Z,2.77
2018-02-11T03:29:06.268Z,2.81
2018-02-11T03:30:06.280Z,2.67
2018-02-11T03:31:06.296Z,2.80
2018-02-11T03:32:06.315Z,2.84
2018-02-11T03:33:06.331Z,2.69
2018-02-11T03:34:06.344Z,2.77
2018-02-11T03:35:06.360Z,2.76
2018-02-11T03:36:06.381Z,2.80
2018-02-11T03:37:06.397Z,2.72
2018-02-11T03:38:06.412Z,2.83
2018-02-11T03:39:06.424Z,2.76
2018-02-11T03:40:06.447Z,2.80
2018-02-11T03:41:06.463Z,2.76
2018-02-11T03:42:06.474Z,2.83
2018-02-11T03:43:06.490Z,2.70
2018-02-11T03:44:06.511Z,2.63
2018-02-11T03:45:06.527Z,2.81
2018-02-11T03:46:06.539Z,2.67
2018-02-11T03:47:06.556Z,2.70
2018-02-11T03:48:06.577Z,2.67
2018-02-11T03:49:06.593Z,2.67
2018-02-11T03:50:06.612Z,2.72
2018-02-11T03:51:06.621Z,2.62
2018-02-11T03:52:06.642Z,2.67
2018-02-11T03:53:06.659Z,2.78
2018-02-11T03:54:06.670Z,2.73
2018-02-11T03:55:06.686Z,2.83
2018-02-11T03:56:06.707Z,2.90
2018-02-11T03:57:06.723Z,2.85
2018-02-11T03:58:06.736Z,2.93
2018-02-11T03:59:06.752Z,2.90
2018-02-11T04:00:06.773Z,2.87
2018-02-11T04:01:06.784Z,3.02
2018-02-11T04:02:06.808Z,3.02
2018-02-11T04:03:06.817Z,2.98
2018-02-11T04:04:06.838Z,2.99
2018-02-11T04:05:06.849Z,3.06
2018-02-11T04:06:06.872Z,3.08
2018-02-11T04:07:06.884Z,3.08
2018-02-11T04:08:06.904Z,3.11
2018-02-11T04:09:06.915Z,3.16
2018-02-11T04:10:06.939Z,3.09
2018-02-11T04:11:06.948Z,3.11
2018-02-11T04:12:06.969Z,3.09
2018-02-11T04:13:06.981Z,3.11
2018-02-11T04:14:07.003Z,3.11
2018-02-11T04:15:07.015Z,3.06
2018-02-11T04:16:07.035Z,3.14
2018-02-11T04:17:07.055Z,3.17
2018-02-11T04:18:07.063Z,3.23
2018-02-11T04:19:07.081Z,3.17
2018-02-11T04:20:07.101Z,3.19
2018-02-11T04:21:07.118Z,3.19
2018-02-11T04:22:07.129Z,3.20
2018-02-11T04:23:07.145Z,3.20
2018-02-11T04:24:07.168Z,3.23
2018-02-11T04:25:07.179Z,3.21
2018-02-11T04:26:07.195Z,3.13
2018-02-11T04:27:07.218Z,3.14
2018-02-11T04:28:07.238Z,3.16
2018-02-11T04:29:07.251Z,3.20
2018-02-11T04:30:07.262Z,3.17
2018-02-11T04:31:07.284Z,3.08
2018-02-11T04:32:07.295Z,3.11
2018-02-11T04:33:07.316Z,3.14
2018-02-11T04:34:07.327Z,3.16
2018-02-11T04:35:07.351Z,3.09
2018-02-11T04:36:07.360Z,3.06
2018-02-11T04:37:07.383Z,2.99
2018-02-11T04:38:07.394Z,2.91
2018-02-11T04:39:07.411Z,2.98
2018-02-11T04:40:07.425Z,3.01
2018-02-11T04:41:07.445Z,2.96
2018-02-11T04:42:07.461Z,2.96
2018-02-11T04:43:07.477Z,2.96
2018-02-11T04:44:07.500Z,3.05
2018-02-11T04:45:07.514Z,3.05
2018-02-11T04:46:07.527Z,3.08
2018-02-11T04:47:07.544Z,3.11
2018-02-11T04:48:07.565Z,3.05
2018-02-11T04:49:07.621Z,3.11
2018-02-11T04:50:07.598Z,3.20
2018-02-11T04:51:07.610Z,3.14
2018-02-11T04:52:07.632Z,3.08
2018-02-11T04:53:07.643Z,3.21
2018-02-11T04:54:07.664Z,3.21
2018-02-11T04:55:07.682Z,3.23
2018-02-11T04:56:07.698Z,3.32
2018-02-11T04:57:07.725Z,3.32
2018-02-11T04:58:07.726Z,3.32
2018-02-11T04:59:07.748Z,3.29
2018-02-11T05:00:07.759Z,3.26
2018-02-11T05:01:07.782Z,3.35
2018-02-11T05:02:07.798Z,3.37
2018-02-11T05:03:07.809Z,3.40
2018-02-11T05:04:07.830Z,3.39
2018-02-11T05:05:07.847Z,3.40
2018-02-11T05:06:07.857Z,3.48
2018-02-11T05:07:07.876Z,3.29
2018-02-11T05:08:07.896Z,3.37
2018-02-11T05:09:07.914Z,3.34
2018-02-11T05:10:07.925Z,3.30
2018-02-11T05:11:07.947Z,3.37
2018-02-11T05:12:07.965Z,3.35
2018-02-11T05:13:07.975Z,3.39
2018-02-11T05:14:07.997Z,3.40
2018-02-11T05:15:08.014Z,3.37
2018-02-11T05:16:08.025Z,3.34
2018-02-11T05:17:08.041Z,3.29
2018-02-11T05:18:08.058Z,3.32
2018-02-11T05:19:08.080Z,3.37
2018-02-11T05:20:08.091Z,3.32
2018-02-11T05:21:08.107Z,3.30
2018-02-11T05:22:08.129Z,3.23
2018-02-11T05:23:08.147Z,3.20
2018-02-11T05:24:08.158Z,3.20
2018-02-11T05:25:08.175Z,3.16
2018-02-11T05:26:08.195Z,3.11
2018-02-11T05:27:08.212Z,3.13
2018-02-11T05:28:08.229Z,3.11
2018-02-11T05:29:08.240Z,3.13
2018-02-11T05:30:08.258Z,3.11
2018-02-11T05:31:08.279Z,3.11
2018-02-11T05:32:08.290Z,3.13
2018-02-11T05:33:08.313Z,3.13
2018-02-11T05:34:08.324Z,3.14
2018-02-11T05:35:08.341Z,3.20
2018-02-11T05:36:08.362Z,3.17
2018-02-11T05:37:08.379Z,3.17
2018-02-11T05:38:08.390Z,3.23
2018-02-11T05:39:08.408Z,3.17
2018-02-11T05:40:08.448Z,3.14
2018-02-11T05:41:08.446Z,3.17
2018-02-11T05:42:08.457Z,3.06
2018-02-11T05:43:08.475Z,3.06
2018-02-11T05:44:08.490Z,3.08
2018-02-11T05:45:08.506Z,3.08
2018-02-11T05:46:08.529Z,2.95
2018-02-11T05:47:08.540Z,2.91
2018-02-11T05:48:08.562Z,2.83
2018-02-11T05:49:08.574Z,2.77
2018-02-11T05:50:08.590Z,2.69
2018-02-11T05:51:08.614Z,2.63
2018-02-11T05:52:08.627Z,2.62
2018-02-11T05:53:08.645Z,2.80
2018-02-11T05:54:08.657Z,2.66
2018-02-11T05:55:08.678Z,2.77
2018-02-11T05:56:08.689Z,2.91
2018-02-11T05:57:08.710Z,2.76
2018-02-11T05:58:08.722Z,2.85
2018-02-11T05:59:08.744Z,2.81
2018-02-11T06:00:08.760Z,2.85
2018-02-11T06:01:08.781Z,2.93
2018-02-11T06:02:08.789Z,2.88
2018-02-11T06:03:08.810Z,2.96
2018-02-11T06:04:08.822Z,3.08
2018-02-11T06:05:08.842Z,3.05
2018-02-11T06:06:08.859Z,3.05
2018-02-11T06:07:08.870Z,3.05
2018-02-11T06:08:08.892Z,3.05
2018-02-11T06:09:08.902Z,3.08
2018-02-11T06:10:08.926Z,3.11
2018-02-11T06:11:08.935Z,3.11
2018-02-11T06:12:08.958Z,3.09
2018-02-11T06:13:08.968Z,3.09
2018-02-11T06:14:08.990Z,3.05
2018-02-11T06:15:09.008Z,3.08
2018-02-11T06:16:09.024Z,3.09
2018-02-11T06:17:09.035Z,3.16
2018-02-11T06:18:09.057Z,3.16
2018-02-11T06:19:09.073Z,3.16
2018-02-11T06:20:09.082Z,3.08
2018-02-11T06:21:09.100Z,3.09
2018-02-11T06:22:09.117Z,3.16
2018-02-11T06:23:09.133Z,3.20
2018-02-11T06:24:09.156Z,3.11
2018-02-11T06:25:09.172Z,3.11
2018-02-11T06:26:09.183Z,3.11
2018-02-11T06:27:09.201Z,3.20
2018-02-11T06:28:09.221Z,3.20
2018-02-11T06:29:09.238Z,3.14
2018-02-11T06:30:09.249Z,3.19
2018-02-11T06:31:09.266Z,3.19
2018-02-11T06:32:09.289Z,3.20
2018-02-11T06:33:09.303Z,3.20
2018-02-11T06:34:09.315Z,3.20
2018-02-11T06:35:09.332Z,3.26
2018-02-11T06:36:09.354Z,3.27
2018-02-11T06:37:09.373Z,3.30
2018-02-11T06:38:09.382Z,3.24
2018-02-11T06:39:09.399Z,3.23
2018-02-11T06:40:09.418Z,3.23
2018-02-11T06:41:09.431Z,3.23
2018-02-11T06:42:09.454Z,3.37
2018-02-11T06:43:09.465Z,3.34
2018-02-11T06:44:09.486Z,3.35
2018-02-11T06:45:09.497Z,3.43
2018-02-11T06:46:09.519Z,3.39
2018-02-11T06:47:09.532Z,3.35
2018-02-11T06:48:09.553Z,3.29
2018-02-11T06:49:09.564Z,3.34
2018-02-11T06:50:09.586Z,3.46
2018-02-11T06:51:09.597Z,3.37
2018-02-11T06:52:09.618Z,3.39
2018-02-11T06:53:09.629Z,3.40
2018-02-11T06:54:09.651Z,3.39
2018-02-11T06:55:09.669Z,3.42
2018-02-11T06:56:09.682Z,3.39
2018-02-11T06:57:09.705Z,3.35
2018-02-11T06:58:09.713Z,3.30
2018-02-11T06:59:09.736Z,3.34
2018-02-11T07:00:09.807Z,3.40
2018-02-11T07:01:09.768Z,3.37
2018-02-11T07:02:09.786Z,3.39
2018-02-11T07:03:09.805Z,3.32
2018-02-11T07:04:09.813Z,3.40
2018-02-11T07:05:09.836Z,3.35
2018-02-11T07:06:09.847Z,3.40
2018-02-11T07:07:09.870Z,3.30
2018-02-11T07:08:09.880Z,3.32
2018-02-11T07:09:09.902Z,3.43
2018-02-11T07:10:09.913Z,3.34
2018-02-11T07:11:09.932Z,3.37
2018-02-11T07:12:09.952Z,3.32
2018-02-11T07:13:09.970Z,3.39
2018-02-11T07:14:09.980Z,3.30
2018-02-11T07:15:09.997Z,3.29
2018-02-11T07:16:10.020Z,3.45
2018-02-11T07:17:10.037Z,3.32
2018-02-11T07:18:10.048Z,3.37
2018-02-11T07:19:10.067Z,3.30
2018-02-11T07:20:10.086Z,3.35
2018-02-11T07:21:10.103Z,3.37
2018-02-11T07:22:10.115Z,3.34
2018-02-11T07:23:10.133Z,3.26
2018-02-11T07:24:10.154Z,3.27
2018-02-11T07:25:10.170Z,3.35
2018-02-11T07:26:10.183Z,3.35
2018-02-11T07:27:10.208Z,3.39
2018-02-11T07:28:10.219Z,3.39
2018-02-11T07:29:10.231Z,3.35
2018-02-11T07:30:10.254Z,3.39
2018-02-11T07:31:10.272Z,3.32
2018-02-11T07:32:10.282Z,3.37
2018-02-11T07:33:10.299Z,3.35
2018-02-11T07:34:10.322Z,3.37
2018-02-11T07:35:10.333Z,3.39
2018-02-11T07:36:10.355Z,3.40
2018-02-11T07:37:10.376Z,3.29
2018-02-11T07:38:10.383Z,3.34
2018-02-11T07:39:10.402Z,3.21
2018-02-11T07:40:10.422Z,3.24
2018-02-11T07:41:10.446Z,3.34
2018-02-11T07:42:10.451Z,3.30
2018-02-11T07:43:10.468Z,3.42
2018-02-11T07:44:10.489Z,3.45
2018-02-11T07:45:10.507Z,3.35
2018-02-11T07:46:10.518Z,3.39
2018-02-11T07:47:10.534Z,3.35
2018-02-11T07:48:10.556Z,3.39
2018-02-11T07:49:10.573Z,3.37
2018-02-11T07:50:10.585Z,3.35
2018-02-11T07:51:10.602Z,3.42
2018-02-11T07:52:10.673Z,3.42
2018-02-11T07:53:10.637Z,3.49
2018-02-11T07:54:10.662Z,3.42
2018-02-11T07:55:10.670Z,3.53
2018-02-11T07:56:10.692Z,3.45
2018-02-11T07:57:10.702Z,3.48
2018-02-11T07:58:10.726Z,3.51
2018-02-11T07:59:10.737Z,3.57
2018-02-11T08:00:10.759Z,3.57
2018-02-11T08:01:10.774Z,3.53
2018-02-11T08:02:10.794Z,3.56
2018-02-11T08:03:10.805Z,3.53
2018-02-11T08:04:10.828Z,3.61
2018-02-11T08:05:10.842Z,3.56
2018-02-11T08:06:10.860Z,3.61
2018-02-11T08:07:10.879Z,3.60
2018-02-11T08:08:10.890Z,3.64
2018-02-11T08:09:10.912Z,3.58
2018-02-11T08:10:10.924Z,3.66
2018-02-11T08:11:10.984Z,3.72
2018-02-11T08:12:10.956Z,3.71
2018-02-11T08:13:10.981Z,3.67
2018-02-11T08:14:10.996Z,3.61
2018-02-11T08:15:11.016Z,3.69
2018-02-11T08:16:11.025Z,3.72
2018-02-11T08:17:11.049Z,3.74
2018-02-11T08:18:11.061Z,3.71
2018-02-11T08:19:11.081Z,3.72
2018-02-11T08:20:11.094Z,3.75
2018-02-11T08:21:11.115Z,3.74
2018-02-11T08:22:11.128Z,3.69
2018-02-11T08:23:11.153Z,3.66
2018-02-11T08:24:11.165Z,3.72
2018-02-11T08:25:11.183Z,3.86
2018-02-11T08:26:11.194Z,3.81
2018-02-11T08:27:11.211Z,3.85
2018-02-11T08:28:11.236Z,3.81
2018-02-11T08:29:11.251Z,3.82
2018-02-11T08:30:11.262Z,3.81
2018-02-11T08:31:11.285Z,3.84
2018-02-11T08:32:11.297Z,3.81
2018-02-11T08:33:11.316Z,3.81
2018-02-11T08:34:11.337Z,3.89
2018-02-11T08:35:11.355Z,3.92
2018-02-11T08:36:11.364Z,3.86
2018-02-11T08:37:11.384Z,3.89
2018-02-11T08:38:11.404Z,3.90
2018-02-11T08:39:11.416Z,3.90
2018-02-11T08:40:11.438Z,3.89
2018-02-11T08:41:11.456Z,3.90
2018-02-11T08:42:11.468Z,3.90
2018-02-11T08:43:11.484Z,3.96
2018-02-11T08:44:11.512Z,3.86
2018-02-11T08:45:11.524Z,3.89
2018-02-11T08:46:11.535Z,3.92
2018-02-11T08:47:11.554Z,4.02
2018-02-11T08:48:11.575Z,4.02
2018-02-11T08:49:11.592Z,3.92
2018-02-11T08:50:11.604Z,3.92
2018-02-11T08:51:11.621Z,3.90
2018-02-11T08:52:11.643Z,4.03
2018-02-11T08:53:11.662Z,4.08
2018-02-11T08:54:11.672Z,4.04
2018-02-11T08:55:11.690Z,3.97
2018-02-11T08:56:11.712Z,3.97
2018-02-11T08:57:11.724Z,4.03
2018-02-11T08:58:11.748Z,4.04
2018-02-11T08:59:11.759Z,4.02
2018-02-11T09:00:11.782Z,4.03
2018-02-11T09:01:11.793Z,4.00
2018-02-11T09:02:11.816Z,4.07
2018-02-11T09:03:11.828Z,4.11
2018-02-11T09:04:11.851Z,4.14
2018-02-11T09:05:11.862Z,4.18
2018-02-11T09:06:11.885Z,4.18
2018-02-11T09:07:11.896Z,4.12
2018-02-11T09:08:11.919Z,4.10
2018-02-11T09:09:11.931Z,4.15
2018-02-11T09:10:11.954Z,4.17
2018-02-11T09:11:11.970Z,4.15
2018-02-11T09:12:11.983Z,4.18
2018-02-11T09:13:12.006Z,4.22
2018-02-11T09:14:12.017Z,4.24
2018-02-11T09:15:12.041Z,4.22
2018-02-11T09:16:12.050Z,4.20
2018-02-11T09:17:12.075Z,4.24
2018-02-11T09:18:12.087Z,4.26
2018-02-11T09:19:12.110Z,4.26
2018-02-11T09:20:12.120Z,4.24
2018-02-11T09:21:12.173Z,4.24
2018-02-11T09:22:12.159Z,4.29
2018-02-11T09:23:12.179Z,4.33
2018-02-11T09:24:12.190Z,4.30
2018-02-11T09:25:12.213Z,4.36
2018-02-11T09:26:12.225Z,4.39
2018-02-11T09:27:12.243Z,4.38
2018-02-11T09:28:12.266Z,4.35
2018-02-11T09:29:12.284Z,4.42
2018-02-11T09:30:12.295Z,4.36
2018-02-11T09:31:12.313Z,4.44
2018-02-11T09:32:12.334Z,4.44
2018-02-11T09:33:12.352Z,4.44
2018-02-11T09:34:12.365Z,4.38
2018-02-11T09:35:12.388Z,4.42
2018-02-11T09:36:12.399Z,4.40
2018-02-11T09:37:12.418Z,4.47
2018-02-11T09:38:12.440Z,4.39
2018-02-11T09:39:12.458Z,4.48
2018-02-11T09:40:12.469Z,4.53
2018-02-11T09:41:12.488Z,4.48
2018-02-11T09:42:12.511Z,4.51
2018-02-11T09:43:12.529Z,4.44
2018-02-11T09:44:12.543Z,4.42
2018-02-11T09:45:12.557Z,4.48
2018-02-11T09:46:12.581Z,4.47
2018-02-11T09:47:12.597Z,4.51
2018-02-11T09:48:12.609Z,4.57
2018-02-11T09:49:12.628Z,4.54
2018-02-11T09:50:12.650Z,4.47
2018-02-11T09:51:12.664Z,4.57
2018-02-11T09:52:12.686Z,4.57
2018-02-11T09:53:12.703Z,4.57
2018-02-11T09:54:12.715Z,4.57
2018-02-11T09:55:12.734Z,4.68
2018-02-11T09:56:12.756Z,4.68
2018-02-11T09:57:12.773Z,4.69
2018-02-11T09:58:12.788Z,4.72
2018-02-11T09:59:12.804Z,4.68
2018-02-11T10:00:12.826Z,4.78
2018-02-11T10:01:12.845Z,4.84
2018-02-11T10:02:12.857Z,4.91
2018-02-11T10:03:12.876Z,4.95
2018-02-11T10:04:12.901Z,4.94
2018-02-11T10:05:12.918Z,5.08
2018-02-11T10:06:12.928Z,5.02
2018-02-11T10:07:12.949Z,5.10
2018-02-11T10:08:12.969Z,4.98
2018-02-11T10:09:12.985Z,5.08
2018-02-11T10:10:13.036Z,5.09
2018-02-11T10:11:13.018Z,5.15
2018-02-11T10:12:13.042Z,5.21
2018-02-11T10:13:13.053Z,5.33
2018-02-11T10:14:13.078Z,5.27
2018-02-11T10:15:13.096Z,5.20
2018-02-11T10:16:13.112Z,5.15
2018-02-11T10:17:13.125Z,5.24
2018-02-11T10:18:13.153Z,5.26
2018-02-11T10:19:13.164Z,5.33
2018-02-11T10:20:13.186Z,5.41
2018-02-11T10:21:13.198Z,5.45
2018-02-11T10:22:13.226Z,5.44
2018-02-11T10:23:13.241Z,5.46
2018-02-11T10:24:13.252Z,5.41
2018-02-11T10:25:13.281Z,5.41
2018-02-11T10:26:13.292Z,5.46
2018-02-11T10:27:13.313Z,5.46
2018-02-11T10:28:13.326Z,5.46
2018-02-11T10:29:13.349Z,5.42
2018-02-11T10:30:13.361Z,5.46
2018-02-11T10:31:13.387Z,5.55
2018-02-11T10:32:13.399Z,5.62
2018-02-11T10:33:13.422Z,5.57
2018-02-11T10:34:13.436Z,5.59
2018-02-11T10:35:13.460Z,5.60
2018-02-11T10:36:13.471Z,5.63
2018-02-11T10:37:13.496Z,5.62
2018-02-11T10:38:13.510Z,5.63
2018-02-11T10:39:13.528Z,5.73
2018-02-11T10:40:13.550Z,5.77
2018-02-11T10:41:13.565Z,5.84
2018-02-11T10:42:13.583Z,5.87
2018-02-11T10:43:13.607Z,5.88
2018-02-11T10:44:13.624Z,5.87
2018-02-11T10:45:13.645Z,6.05
2018-02-11T10:46:13.656Z,6.05
2018-02-11T10:47:13.681Z,6.10
2018-02-11T10:48:13.695Z,6.14
2018-02-11T10:49:13.713Z,6.06
2018-02-11T10:50:13.736Z,6.17
2018-02-11T10:51:13.756Z,6.21
2018-02-11T10:52:13.771Z,6.17
2018-02-11T10:53:13.786Z,6.25
2018-02-11T10:54:13.811Z,6.33
2018-02-11T10:55:13.831Z,6.33
2018-02-11T10:56:13.843Z,6.21
2018-02-11T10:57:13.868Z,6.34
2018-02-11T10:58:13.887Z,6.39
2018-02-11T10:59:13.901Z,6.46
2018-02-11T11:00:13.917Z,6.55
2018-02-11T11:01:13.938Z,6.67
2018-02-11T11:02:13.962Z,6.58
2018-02-11T11:03:13.976Z,6.60
2018-02-11T11:04:13.997Z,6.88
2018-02-11T11:05:14.012Z,6.83
2018-02-11T11:06:14.037Z,6.80
2018-02-11T11:07:14.055Z,6.94
2018-02-11T11:08:14.075Z,6.98
2018-02-11T11:09:14.089Z,7.15
2018-02-11T11:10:14.114Z,7.31
2018-02-11T11:11:14.132Z,7.44
2018-02-11T11:12:14.150Z,7.56
2018-02-11T11:13:14.171Z,7.70
2018-02-11T11:14:14.192Z,7.70
2018-02-11T11:15:14.209Z,7.91
2018-02-11T11:16:14.248Z,8.03
2018-02-11T11:17:14.246Z,8.61
2018-02-11T11:18:14.266Z,10.07
2018-02-11T11:19:14.286Z,10.88
2018-02-11T11:20:14.300Z,11.56
2018-02-11T11:21:14.329Z,11.49
2018-02-11T11:22:14.340Z,12.45
2018-02-11T11:23:14.367Z,11.91
2018-02-11T11:24:14.381Z,11.85
2018-02-11T11:25:14.409Z,11.71
2018-02-11T11:26:14.427Z,11.28
2018-02-11T11:27:14.447Z,10.52
2018-02-11T11:28:14.469Z,10.17
2018-02-11T11:29:14.492Z,9.75
2018-02-11T11:30:14.520Z,9.48
2018-02-11T11:31:14.537Z,8.98
2018-02-11T11:32:14.565Z,8.68
2018-02-11T11:33:14.584Z,8.57
2018-02-11T11:34:14.606Z,8.39
2018-02-11T11:35:14.634Z,8.29
2018-02-11T11:36:14.650Z,8.52
2018-02-11T11:37:14.676Z,8.65
2018-02-11T11:38:14.702Z,9.47
2018-02-11T11:39:14.725Z,9.59
2018-02-11T11:40:14.741Z,9.23
2018-02-11T11:41:14.765Z,8.79
2018-02-11T11:42:14.792Z,8.62
2018-02-11T11:43:14.809Z,8.57
2018-02-11T11:44:14.836Z,9.23
2018-02-11T11:45:14.856Z,8.82
2018-02-11T11:46:14.905Z,8.68
2018-02-11T11:47:14.904Z,8.46
2018-02-11T11:48:14.927Z,8.34
2018-02-11T11:49:14.949Z,8.31
2018-02-11T11:50:14.963Z,8.43
2018-02-11T11:51:14.986Z,8.50
2018-02-11T11:52:15.014Z,8.52
2018-02-11T11:53:15.036Z,8.62
2018-02-11T11:54:15.051Z,8.46
2018-02-11T11:55:15.073Z,8.44
2018-02-11T11:56:15.100Z,8.53
2018-02-11T11:57:15.121Z,8.39
2018-02-11T11:58:15.139Z,8.36
2018-02-11T11:59:15.165Z,8.32
2018-02-11T12:00:15.180Z,8.43
2018-02-11T12:01:15.208Z,8.40
2018-02-11T12:02:15.229Z,8.40
2018-02-11T12:03:15.244Z,8.40
2018-02-11T12:04:15.264Z,8.42
2018-02-11T12:05:15.286Z,8.29
2018-02-11T12:06:15.313Z,8.11
2018-02-11T12:07:15.335Z,8.26
2018-02-11T12:08:15.348Z,8.13
2018-02-11T12:09:15.396Z,8.22
2018-02-11T12:10:15.397Z,8.28
2018-02-11T12:11:15.418Z,8.29
2018-02-11T12:12:15.434Z,8.28
2018-02-11T12:13:15.457Z,8.22
2018-02-11T12:14:15.481Z,8.34
2018-02-11T12:15:15.495Z,8.43
2018-02-11T12:16:15.522Z,8.65
2018-02-11T12:17:15.542Z,8.61
2018-02-11T12:18:15.564Z,8.61
2018-02-11T12:19:15.584Z,8.47
2018-02-11T12:20:15.604Z,8.94
2018-02-11T12:21:15.620Z,9.72
2018-02-11T12:22:15.646Z,9.05
2018-02-11T12:23:15.660Z,8.64
2018-02-11T12:24:15.687Z,8.61
2018-02-11T12:25:15.703Z,9.01
2018-02-11T12:26:15.729Z,9.30
2018-02-11T12:27:15.744Z,9.19
2018-02-11T12:28:15.770Z,9.17
2018-02-11T12:29:15.785Z,9.59
2018-02-11T12:30:15.813Z,10.14
2018-02-11T12:31:15.834Z,10.72
2018-02-11T12:32:15.849Z,10.95
2018-02-11T12:33:15.870Z,10.72
2018-02-11T12:34:15.897Z,9.96
2018-02-11T12:35:15.914Z,9.85
2018-02-11T12:36:15.933Z,9.50
2018-02-11T12:37:15.962Z,9.53
2018-02-11T12:38:15.979Z,9.03
2018-02-11T12:39:16.006Z,8.76
2018-02-11T12:40:16.021Z,8.54
2018-02-11T12:41:16.047Z,8.60
2018-02-11T12:42:16.065Z,8.58
2018-02-11T12:43:16.091Z,8.90
2018-02-11T12:44:16.107Z,9.30
2018-02-11T12:45:16.135Z,9.72
2018-02-11T12:46:16.150Z,9.70
2018-02-11T12:47:16.173Z,9.81
2018-02-11T12:48:16.202Z,9.77
2018-02-11T12:49:16.219Z,9.85
2018-02-11T12:50:16.243Z,9.37
2018-02-11T12:51:16.261Z,9.08
2018-02-11T12:52:16.294Z,9.52
2018-02-11T12:53:16.304Z,9.48
2018-02-11T12:54:16.330Z,9.38
2018-02-11T12:55:16.347Z,9.27
2018-02-11T12:56:16.376Z,9.47
2018-02-11T12:57:16.394Z,9.44
2018-02-11T12:58:16.418Z,9.57
2018-02-11T12:59:16.434Z,9.55
2018-02-11T13:00:16.461Z,9.56
2018-02-11T13:01:16.477Z,9.44
2018-02-11T13:02:16.509Z,9.21
2018-02-11T13:03:16.527Z,9.21
2018-02-11T13:04:16.543Z,9.04
2018-02-11T13:05:16.570Z,8.61
2018-02-11T13:06:16.586Z,8.46
2018-02-11T13:07:16.626Z,8.32
2018-02-11T13:08:16.630Z,8.01
2018-02-11T13:09:16.657Z,7.96
2018-02-11T13:10:16.673Z,8.01
2018-02-11T13:11:16.701Z,7.86
2018-02-11T13:12:16.715Z,7.78
2018-02-11T13:13:16.744Z,7.77
2018-02-11T13:14:16.760Z,7.77
2018-02-11T13:15:16.814Z,7.67
2018-02-11T13:16:16.801Z,7.59
2018-02-11T13:17:16.828Z,7.61